createdAt,value
2018-12-24T00:01:17.058Z,96225.91
2018-12-24T00:04:08.801Z,96226.48
2018-12-24T00:06:57.252Z,96218.32
2018-12-24T00:09:44.936Z,96218.27
2018-12-24T00:12:28.253Z,96202.27
2018-12-24T00:15:57.890Z,96207.82
2018-12-24T00:18:48.560Z,96194.78
2018-12-24T00:21:39.138Z,96206.09
2018-12-24T00:24:29.849Z,96201.22
2018-12-24T00:27:22.513Z,96208.21
2018-12-24T00:30:12.753Z,96192.08
2018-12-24T00:33:03.009Z,96194.23
2018-12-24T00:35:53.577Z,96213.84
2018-12-24T00:38:44.270Z,96215.62
2018-12-24T00:41:36.927Z,96207.22
2018-12-24T00:53:05.887Z,96190.58
2018-12-24T00:55:56.245Z,96179.12
2018-12-24T00:58:27.471Z,96179.89
2018-12-24T01:01:17.997Z,96178.89
2018-12-24T01:04:01.318Z,96186.67
2018-12-24T01:06:52.008Z,96181.80
2018-12-24T01:09:42.619Z,96181.80
2018-12-24T01:12:32.883Z,96163.83
2018-12-24T01:15:23.478Z,96158.20
2018-12-24T01:18:13.810Z,96175.37
2018-12-24T01:21:04.368Z,96171.45
2018-12-24T01:23:55.057Z,96152.59
2018-12-24T01:26:45.599Z,96177.50
2018-12-24T01:29:36.351Z,96193.03
2018-12-24T01:32:26.741Z,96214.45
2018-12-24T01:35:17.426Z,96205.48
2018-12-24T01:38:00.805Z,96201.50
2018-12-24T01:40:51.307Z,96191.98
2018-12-24T01:43:42.035Z,96207.24
2018-12-24T01:46:32.375Z,96197.13
2018-12-24T01:49:22.945Z,96196.11
2018-12-24T01:52:13.175Z,96210.73
2018-12-24T01:55:03.349Z,96190.30
2018-12-24T01:57:53.517Z,96179.80
2018-12-24T02:00:43.771Z,96193.42
2018-12-24T02:03:26.425Z,96153.86
2018-12-24T02:06:36.185Z,96155.31
2018-12-24T02:09:26.435Z,96155.11
2018-12-24T02:12:16.662Z,96155.30
2018-12-24T02:18:05.107Z,96126.50
2018-12-24T02:20:55.286Z,96145.58
2018-12-24T02:23:38.223Z,96157.83
2018-12-24T02:26:28.405Z,96146.96
2018-12-24T02:29:11.663Z,96139.97
2018-12-24T02:32:01.824Z,96149.89
2018-12-24T02:34:45.147Z,96129.84
2018-12-24T02:37:35.343Z,96139.56
2018-12-24T02:40:18.672Z,96128.48
2018-12-24T02:43:01.915Z,96114.98
2018-12-24T02:45:52.139Z,96130.44
2018-12-24T02:48:42.383Z,96110.11
2018-12-24T02:51:32.554Z,96142.70
2018-12-24T02:54:22.725Z,96142.70
2018-12-24T02:57:12.903Z,96128.89
2018-12-24T02:59:58.099Z,96124.39
2018-12-24T03:02:48.290Z,96139.38
2018-12-24T03:05:30.742Z,96129.45
2018-12-24T03:08:20.908Z,96136.66
2018-12-24T03:11:03.617Z,96127.86
2018-12-24T03:13:53.836Z,96130.61
2018-12-24T03:16:37.473Z,96133.91
2018-12-24T03:19:27.685Z,96129.22
2018-12-24T03:22:10.537Z,96102.89
2018-12-24T03:25:01.030Z,96112.83
2018-12-24T03:27:44.053Z,96112.67
2018-12-24T03:30:34.253Z,96107.83
2018-12-24T03:33:17.322Z,96121.25
2018-12-24T03:36:07.488Z,96099.47
2018-12-24T03:38:49.813Z,96093.66
2018-12-24T03:41:39.990Z,96102.79
2018-12-24T03:44:30.172Z,96112.13
2018-12-24T03:47:17.189Z,96107.46
2018-12-24T03:50:00.479Z,96089.19
2018-12-24T03:55:54.890Z,96087.62
2018-12-24T03:58:38.326Z,96062.53
2018-12-24T04:01:21.604Z,96060.02
2018-12-24T04:04:04.366Z,96084.90
2018-12-24T04:06:54.564Z,96076.92
2018-12-24T04:09:44.916Z,96074.02
2018-12-24T04:12:35.156Z,96070.15
2018-12-24T04:15:18.506Z,96060.00
2018-12-24T04:18:08.832Z,96089.81
2018-12-24T04:20:59.644Z,96095.05
2018-12-24T04:23:49.901Z,96098.55
2018-12-24T04:26:40.126Z,96093.69
2018-12-24T04:29:30.352Z,96097.38
2018-12-24T04:35:24.600Z,96107.11
2018-12-24T04:38:11.669Z,96097.38
2018-12-24T04:40:54.274Z,96109.64
2018-12-24T04:44:03.443Z,96107.25
2018-12-24T04:46:53.631Z,96117.98
2018-12-24T04:49:43.785Z,96128.31
2018-12-24T04:52:34.008Z,96142.73
2018-12-24T04:55:17.843Z,96116.41
2018-12-24T04:58:08.021Z,96122.27
2018-12-24T05:00:50.802Z,96140.75
2018-12-24T05:09:19.702Z,96174.42
2018-12-24T05:12:09.865Z,96190.19
2018-12-24T05:15:00.268Z,96186.49
2018-12-24T05:17:50.487Z,96195.45
2018-12-24T05:20:40.829Z,96197.34
2018-12-24T05:23:31.301Z,96372.28
2018-12-24T05:26:21.451Z,96359.73
2018-12-24T05:29:04.083Z,96367.94
2018-12-24T05:31:54.428Z,96371.66
2018-12-24T05:37:48.749Z,96373.36
2018-12-24T05:40:31.779Z,96373.36
2018-12-24T05:43:22.071Z,96398.23
2018-12-24T05:46:12.289Z,96411.50
2018-12-24T05:49:02.516Z,96406.64
2018-12-24T05:51:53.085Z,96417.81
2018-12-24T05:54:43.328Z,96421.95
2018-12-24T05:57:33.556Z,96416.86
2018-12-24T06:00:23.857Z,96425.17
2018-12-24T06:03:14.010Z,96432.09
2018-12-24T06:05:57.079Z,96443.77
2018-12-24T06:08:47.300Z,96450.47
2018-12-24T06:11:38.718Z,96451.70
2018-12-24T06:14:28.962Z,96445.62
2018-12-24T06:17:19.168Z,96482.60
2018-12-24T06:20:09.352Z,96486.20
2018-12-24T06:22:59.514Z,96490.92
2018-12-24T06:25:42.820Z,96528.02
2018-12-24T06:28:33.023Z,96532.09
2018-12-24T06:31:16.280Z,96553.31
2018-12-24T06:34:06.634Z,96560.14
2018-12-24T06:36:57.354Z,96559.08
2018-12-24T06:39:47.652Z,96576.95
2018-12-24T06:42:37.830Z,96581.41
2018-12-24T06:45:28.002Z,96584.09
2018-12-24T06:48:18.208Z,96593.44
2018-12-24T06:51:01.181Z,96578.36
2018-12-24T06:53:51.373Z,96599.02
2018-12-24T06:56:34.180Z,96616.94
2018-12-24T06:59:24.328Z,96621.23
2018-12-24T07:02:11.588Z,96630.01
2018-12-24T07:05:01.785Z,96645.17
2018-12-24T07:07:44.910Z,96648.28
2018-12-24T07:10:35.076Z,96655.86
2018-12-24T07:16:22.055Z,96664.70
2018-12-24T07:19:12.219Z,96678.60
2018-12-24T07:21:55.125Z,96699.45
2018-12-24T07:24:45.329Z,96707.63
2018-12-24T07:27:27.835Z,96703.61
2018-12-24T07:30:18.005Z,96698.84
2018-12-24T07:33:00.743Z,96704.83
2018-12-24T07:35:50.922Z,96706.98
2018-12-24T07:38:33.855Z,96721.05
2018-12-24T07:41:24.003Z,96717.05
2018-12-24T07:44:07.379Z,96734.42
2018-12-24T07:46:57.620Z,96744.10
2018-12-24T07:49:40.619Z,96748.07
2018-12-24T07:52:30.807Z,96749.91
2018-12-24T07:55:13.449Z,96759.00
2018-12-24T07:58:03.686Z,96760.59
2018-12-24T08:00:46.261Z,96761.77
2018-12-24T08:03:36.431Z,96801.58
2018-12-24T08:06:34.501Z,96798.09
2018-12-24T08:09:25.177Z,96822.48
2018-12-24T08:12:15.337Z,96832.74
2018-12-24T08:14:58.483Z,96839.32
2018-12-24T08:17:48.781Z,96837.66
2018-12-24T08:20:39.153Z,96841.06
2018-12-24T08:23:29.428Z,96848.15
2018-12-24T08:26:20.485Z,96844.92
2018-12-24T08:29:10.857Z,96847.51
2018-12-24T08:32:01.105Z,96864.86
2018-12-24T08:34:51.383Z,96857.30
2018-12-24T08:37:41.881Z,96836.48
2018-12-24T08:40:32.326Z,96869.72
2018-12-24T08:43:22.555Z,96886.44
2018-12-24T08:46:05.521Z,96874.46
2018-12-24T08:48:55.755Z,96884.61
2018-12-24T08:51:45.930Z,96900.97
2018-12-24T08:54:36.149Z,96910.44
2018-12-24T08:57:18.649Z,96916.30
2018-12-24T09:00:08.990Z,96922.61
2018-12-24T09:02:53.695Z,96922.85
2018-12-24T09:05:44.017Z,96924.54
2018-12-24T09:08:27.229Z,96939.30
2018-12-24T09:11:17.409Z,96930.73
2018-12-24T09:14:00.419Z,96936.71
2018-12-24T09:16:51.404Z,96951.50
2018-12-24T09:19:41.592Z,96956.55
2018-12-24T09:25:25.654Z,96933.00
2018-12-24T09:28:15.856Z,96956.77
2018-12-24T09:30:59.619Z,96967.95
2018-12-24T09:39:51.016Z,96968.28
2018-12-24T09:42:33.774Z,96978.19
2018-12-24T09:45:24.225Z,96989.92
2018-12-24T09:48:14.468Z,96983.48
2018-12-24T09:51:04.701Z,96990.80
2018-12-24T09:53:55.074Z,97006.27
2018-12-24T09:56:45.315Z,97008.28
2018-12-24T09:59:35.601Z,97010.08
2018-12-24T10:05:44.577Z,97020.67
2018-12-24T10:08:34.817Z,97018.30
2018-12-24T10:11:18.088Z,97023.14
2018-12-24T10:14:08.421Z,97033.50
2018-12-24T10:16:51.697Z,97037.56
2018-12-24T10:19:41.915Z,97046.79
2018-12-24T10:22:25.169Z,97056.60
2018-12-24T10:24:56.433Z,97071.13
2018-12-24T10:27:46.626Z,97073.28
2018-12-24T10:30:29.880Z,97072.83
2018-12-24T10:33:20.124Z,97057.30
2018-12-24T10:36:10.338Z,97056.56
2018-12-24T10:38:52.595Z,97046.31
2018-12-24T10:42:01.837Z,97040.38
2018-12-24T10:44:52.125Z,97033.37
2018-12-24T10:47:42.289Z,97032.59
2018-12-24T10:50:32.465Z,97054.45
2018-12-24T10:53:22.619Z,97063.02
2018-12-24T10:56:12.797Z,97053.67
2018-12-24T10:59:03.035Z,97051.30
2018-12-24T11:01:53.267Z,97046.91
2018-12-24T11:04:43.503Z,97051.96
2018-12-24T11:07:33.735Z,97049.33
2018-12-24T11:10:23.973Z,97039.20
2018-12-24T11:16:18.175Z,97051.09
2018-12-24T11:19:02.429Z,97050.17
2018-12-24T11:21:45.603Z,97044.55
2018-12-24T11:24:35.829Z,97049.29
2018-12-24T11:27:26.052Z,97037.31
2018-12-24T11:29:57.233Z,97050.42
2018-12-24T11:38:25.975Z,97058.62
2018-12-24T11:41:16.146Z,97053.13
2018-12-24T11:44:00.137Z,97039.12
2018-12-24T11:46:50.305Z,97049.06
2018-12-24T11:49:32.795Z,97053.56
2018-12-24T11:52:22.961Z,97059.67
2018-12-24T11:55:05.705Z,97062.28
2018-12-24T11:57:55.877Z,97064.07
2018-12-24T12:00:38.609Z,97056.73
2018-12-24T12:03:28.820Z,97057.83
2018-12-24T12:06:19.525Z,97055.31
2018-12-24T12:12:07.190Z,97076.15
2018-12-24T12:14:57.375Z,97070.50
2018-12-24T12:17:40.737Z,97081.97
2018-12-24T12:20:31.193Z,97075.22
2018-12-24T12:23:14.218Z,97090.56
2018-12-24T12:26:04.562Z,97095.55
2018-12-24T12:28:47.410Z,97109.50
2018-12-24T12:31:37.608Z,97109.50
2018-12-24T12:34:20.433Z,97104.67
2018-12-24T12:37:10.617Z,97099.16
2018-12-24T12:39:54.987Z,97099.13
2018-12-24T12:42:45.194Z,97107.47
2018-12-24T12:45:28.315Z,97105.62
2018-12-24T12:48:18.505Z,97114.98
2018-12-24T12:51:05.655Z,97131.67
2018-12-24T12:53:55.865Z,97131.36
2018-12-24T12:56:39.107Z,97134.42
2018-12-24T12:59:29.279Z,97139.98
2018-12-24T13:02:12.444Z,97144.22
2018-12-24T13:05:21.511Z,97142.36
2018-12-24T13:08:04.735Z,97143.56
2018-12-24T13:10:54.936Z,97151.67
2018-12-24T13:13:37.410Z,97162.95
2018-12-24T13:16:27.646Z,97165.95
2018-12-24T13:19:11.003Z,97150.51
2018-12-24T13:22:04.431Z,97169.80
2018-12-24T13:24:45.652Z,97171.60
2018-12-24T13:30:28.119Z,97184.38
2018-12-24T13:33:19.191Z,97179.45
2018-12-24T13:36:09.392Z,97182.26
2018-12-24T13:38:59.598Z,97178.23
2018-12-24T13:41:49.773Z,97185.76
2018-12-24T13:47:19.880Z,97197.28
2018-12-24T13:50:10.210Z,97208.68
2018-12-24T13:53:00.630Z,97211.78
2018-12-24T13:55:48.182Z,97219.91
2018-12-24T13:58:19.409Z,97233.38
2018-12-24T14:01:09.732Z,97233.98
2018-12-24T14:03:53.380Z,97235.14
2018-12-24T14:06:36.534Z,97237.00
2018-12-24T14:09:27.213Z,97242.70
2018-12-24T14:12:37.734Z,97248.45
2018-12-24T14:15:28.034Z,97247.66
2018-12-24T14:18:18.700Z,97236.84
2018-12-24T14:21:09.932Z,97254.82
2018-12-24T14:24:00.248Z,97262.36
2018-12-24T14:26:50.817Z,97270.86
2018-12-24T14:29:42.806Z,97266.48
2018-12-24T14:32:33.114Z,97285.33
2018-12-24T14:35:23.355Z,97294.05
2018-12-24T14:38:13.528Z,97304.11
2018-12-24T14:40:56.742Z,97295.70
2018-12-24T14:43:47.282Z,97297.60
2018-12-24T14:46:37.688Z,97297.20
2018-12-24T14:49:27.929Z,97298.97
2018-12-24T14:52:18.455Z,97303.17
2018-12-24T14:55:11.041Z,97300.41
2018-12-24T14:58:01.549Z,97306.70
2018-12-24T15:00:52.145Z,97297.33
2018-12-24T15:03:36.179Z,97295.44
2018-12-24T15:06:20.775Z,97294.59
2018-12-24T15:09:05.795Z,97294.30
2018-12-24T15:11:56.125Z,97286.73
2018-12-24T15:14:46.421Z,97290.47
2018-12-24T15:17:36.740Z,97287.67
2018-12-24T15:20:27.873Z,97289.13
2018-12-24T15:23:18.747Z,97280.66
2018-12-24T15:26:02.967Z,97299.50
2018-12-24T15:28:53.206Z,97312.81
2018-12-24T15:31:43.466Z,97322.09
2018-12-24T15:34:33.617Z,97313.55
2018-12-24T15:37:16.389Z,97318.25
2018-12-24T15:40:06.639Z,97322.09
2018-12-24T15:42:56.929Z,97318.68
2018-12-24T15:45:47.507Z,97321.11
2018-12-24T15:51:41.797Z,97326.11
2018-12-24T15:57:17.309Z,97330.90
2018-12-24T16:00:08.661Z,97327.70
2018-12-24T16:02:58.906Z,97328.59
2018-12-24T16:08:45.693Z,97331.09
2018-12-24T16:11:35.907Z,97343.84
2018-12-24T16:14:22.797Z,97336.25
2018-12-24T16:17:13.039Z,97320.13
2018-12-24T16:20:03.057Z,97331.88
2018-12-24T16:22:55.698Z,97333.11
2018-12-24T16:25:45.995Z,97331.27
2018-12-24T16:28:28.817Z,97336.34
2018-12-24T16:31:20.341Z,97338.63
2018-12-24T16:34:10.645Z,97339.53
2018-12-24T16:37:00.921Z,97351.25
2018-12-24T16:39:53.187Z,97352.70
2018-12-24T16:42:36.404Z,97356.08
2018-12-24T16:45:19.802Z,97351.80
2018-12-24T16:48:02.764Z,97351.50
2018-12-24T16:50:53.044Z,97352.36
2018-12-24T16:53:43.313Z,97357.67
2018-12-24T16:56:33.596Z,97362.25
2018-12-24T17:02:30.120Z,97364.09
2018-12-24T17:05:13.493Z,97367.53
2018-12-24T17:08:03.793Z,97362.09
2018-12-24T17:10:54.018Z,97361.14
2018-12-24T17:13:44.279Z,97338.30
2018-12-24T17:19:39.647Z,97364.58
2018-12-24T17:25:25.689Z,97355.19
2018-12-24T17:28:16.209Z,97384.49
2018-12-24T17:30:59.074Z,97382.80
2018-12-24T17:33:49.331Z,97390.12
2018-12-24T17:40:04.986Z,97392.80
2018-12-24T17:42:47.450Z,97399.67
2018-12-24T17:45:37.640Z,97410.14
2018-12-24T17:48:20.542Z,97419.45
2018-12-24T17:51:10.728Z,97421.58
2018-12-24T17:53:53.277Z,97428.03
2018-12-24T17:56:43.450Z,97416.67
2018-12-24T17:59:26.528Z,97433.66
2018-12-24T18:02:16.720Z,97443.03
2018-12-24T18:08:04.374Z,97434.91
2018-12-24T18:10:54.588Z,97462.33
2018-12-24T18:13:37.671Z,97458.77
2018-12-24T18:16:28.184Z,97459.86
2018-12-24T18:19:15.289Z,97468.84
2018-12-24T18:22:05.483Z,97466.23
2018-12-24T18:24:56.492Z,97468.28
2018-12-24T18:27:40.102Z,97473.69
2018-12-24T18:30:30.328Z,97469.97
2018-12-24T18:33:20.927Z,97475.03
2018-12-24T18:39:15.671Z,97470.35
2018-12-24T18:42:03.004Z,97495.86
2018-12-24T18:44:45.600Z,97500.33
2018-12-24T18:50:32.870Z,97509.92
2018-12-24T18:53:23.028Z,97502.53
2018-12-24T18:56:06.738Z,97519.80
2018-12-24T18:58:56.984Z,97509.24
2018-12-24T19:01:39.796Z,97527.91
2018-12-24T19:04:30.834Z,97534.98
2018-12-24T19:07:13.176Z,97541.48
2018-12-24T19:10:03.731Z,97547.14
2018-12-24T19:12:53.929Z,97540.80
2018-12-24T19:15:37.294Z,97546.84
2018-12-24T19:18:27.496Z,97552.08
2018-12-24T19:21:17.818Z,97554.53
2018-12-24T19:26:50.346Z,97556.88
2018-12-24T19:29:40.506Z,97562.91
2018-12-24T19:32:23.795Z,97568.13
2018-12-24T19:35:32.999Z,97554.16
2018-12-24T19:38:16.258Z,97562.85
2018-12-24T19:41:06.434Z,97589.97
2018-12-24T19:43:49.409Z,97573.06
2018-12-24T19:46:39.649Z,97597.91
2018-12-24T19:49:22.078Z,97598.38
2018-12-24T19:52:12.607Z,97596.48
2018-12-24T19:54:55.508Z,97570.88
2018-12-24T19:57:45.680Z,97580.47
2018-12-24T20:00:34.941Z,97575.33
2018-12-24T20:06:21.917Z,97587.40
2018-12-24T20:09:12.560Z,97586.72
2018-12-24T20:11:55.611Z,97593.86
2018-12-24T20:20:22.315Z,97606.92
2018-12-24T20:23:12.471Z,97612.39
2018-12-24T20:26:02.664Z,97613.69
2018-12-24T20:28:52.861Z,97623.20
2018-12-24T20:31:35.728Z,97615.45
2018-12-24T20:34:25.902Z,97597.23
2018-12-24T20:37:09.503Z,97586.16
2018-12-24T20:39:59.841Z,97584.88
2018-12-24T20:43:03.476Z,97586.48
2018-12-24T20:51:45.479Z,97587.19
2018-12-24T20:57:40.276Z,97593.24
2018-12-24T21:00:23.773Z,97583.09
2018-12-24T21:03:13.964Z,97567.30
2018-12-24T21:06:04.172Z,97581.20
2018-12-24T21:08:47.009Z,97583.96
2018-12-24T21:14:28.209Z,97590.34
2018-12-24T21:17:18.694Z,97594.73
2018-12-24T21:23:05.645Z,97600.31
2018-12-24T21:25:55.802Z,97607.00
2018-12-24T21:34:49.704Z,97590.10
2018-12-24T21:43:31.470Z,97621.78
2018-12-24T21:49:22.616Z,97622.15
2018-12-24T22:01:08.840Z,97601.45
2018-12-24T22:03:59.108Z,97602.05
2018-12-24T22:06:43.942Z,97601.92
2018-12-24T22:12:28.681Z,97613.08
2018-12-24T22:15:18.874Z,97590.75
2018-12-24T22:18:02.936Z,97604.57
2018-12-24T22:20:53.086Z,97592.10
2018-12-24T22:35:22.312Z,97624.41
2018-12-24T22:38:05.474Z,97633.02
2018-12-24T22:40:55.813Z,97629.91
2018-12-24T22:43:46.046Z,97602.09
2018-12-24T22:49:33.336Z,97605.44
2018-12-24T22:52:23.516Z,97606.77
2018-12-24T22:55:08.470Z,97613.96
2018-12-24T22:57:58.646Z,97615.55
2018-12-24T23:07:00.899Z,97582.12
2018-12-24T23:09:51.150Z,97583.14
2018-12-24T23:12:41.446Z,97594.67
2018-12-24T23:15:31.684Z,97574.86
2018-12-24T23:18:21.932Z,97576.00
2018-12-24T23:21:12.132Z,97597.14
2018-12-24T23:27:06.280Z,97608.23
2018-12-24T23:29:48.872Z,97603.22
2018-12-24T23:32:39.200Z,97591.44
2018-12-24T23:38:35.398Z,97586.76
2018-12-24T23:41:19.363Z,97586.05
2018-12-24T23:44:09.670Z,97579.85
2018-12-24T23:47:00.122Z,97582.44
2018-12-24T23:49:50.444Z,97571.21
2018-12-24T23:52:40.746Z,97558.28
2018-12-24T23:55:31.023Z,97574.75
2018-12-24T23:58:21.252Z,97574.64
